• Join FlightAware (Why Join?)
  • Login
  • US Flag 
04:03PM EST


 

Airport Tracker/Info


-or-


 

Live Flight TrackerFlight Track Log ✈ SWA1435 ✈ 14-Jul-2013 ✈ KSTL - KBOS

Flight Track Log - Related Links

Times and Time Zones

All times are in EDT time to prevent confusion due to time zone crossing. See the SWA1435 flight status page for this flight to view local times or setup timezone preferences in your user account.

Time Position Orientation Groundspeed Altitude Reporting Facility
EDT Latitude Longitude Course Direction KTS MPH feet Rate Location/Type
09:57AM 38.7333 -90.2833 81° East 201 231 2,500  Level Gateway (St. Louis) TRACON
09:58AM 38.7272 -90.2481 103° East 205 236 3,400 2,460 Climbing Kansas City Center
09:59AM 38.7300 -90.1567 88° East 242 278 6,700 2,940 Climbing Kansas City Center
10:00AM 38.7397 -90.0628 82° East 261 300 9,400 2,280 Climbing Kansas City Center
10:01AM 38.7525 -89.9281 83° East 321 369 11,400 2,220 Climbing Kansas City Center
10:02AM 38.7642 -89.8053 83° East 344 396 13,900 2,340 Climbing Kansas City Center
10:03AM 38.7809 -89.5195 81° East  Level FlightAware Approximate
10:03AM 38.7758 -89.6781 83° East 356 410 16,300  Level Kansas City Center
10:04AM 38.7892 -89.5397 83° East 368 423 18,200 1,860 Climbing Kansas City Center
10:05AM 38.8056 -89.4039 81° East 383 441 20,100 1,680 Climbing Kansas City Center
10:06AM 38.8250 -89.2569 80° East 389 448 21,800 1,560 Climbing Kansas City Center
10:07AM 38.8425 -89.1144 81° East 403 464 23,400 1,680 Climbing Kansas City Center
10:08AM 38.8606 -88.9719 81° East 404 465 25,200 1,320 Climbing Kansas City Center
10:09AM 38.8869 -88.8200 77° East 414 476 26,200 1,140 Climbing Kansas City Center
10:10AM 38.9350 -88.6803 66° East 424 488 27,600 1,080 Climbing Kansas City Center
10:11AM 38.9744 -88.5536 68° East 429 494 28,500 1,080 Climbing Kansas City Center
10:12AM 39.0200 -88.4106 68° East 431 496 29,900 1,200 Climbing Kansas City Center
10:13AM 39.0719 -88.2403 69° East 426 490 31,000 1,080 Climbing Kansas City Center
10:14AM 39.1181 -88.0967 67° East 429 494 32,100 900 Climbing Kansas City Center
10:16AM 39.1589 -87.9578 69° East 425 489 33,000 840 Climbing Indianapolis Center
10:17AM 39.2028 -87.8169 68° East 420 483 33,900 840 Climbing Indianapolis Center
10:18AM 39.2453 -87.6767 69° East 418 481 34,800 480 Climbing Indianapolis Center
10:19AM 39.2900 -87.5342 68° East 414 476 35,000 60 Climbing Indianapolis Center
10:20AM 39.3386 -87.3972 65° Northeast 423 487 35,000  Level Indianapolis Center
10:21AM 39.4025 -87.2353 63° Northeast 426 490 35,000  Level Indianapolis Center
10:22AM 39.4558 -87.1042 62° Northeast 416 479 35,000  Level Indianapolis Center
10:23AM 39.5072 -86.9694 64° Northeast 417 480 35,000  Level Indianapolis Center
10:24AM 39.5589 -86.8372 63° Northeast 413 475 35,000  Level Indianapolis Center
10:25AM 39.6100 -86.7058 63° Northeast 412 474 35,000  Level Indianapolis Center
10:26AM 39.6611 -86.5736 63° Northeast 410 472 35,000  Level Indianapolis Center
10:27AM 39.7119 -86.4419 63° Northeast 409 471 35,000  Level Indianapolis Center
10:28AM 39.7644 -86.3003 64° Northeast 415 478 35,000  Level Indianapolis Center
10:29AM 39.8281 -86.1369 63° Northeast 419 482 35,000  Level Indianapolis Center
10:30AM 39.8725 -86.0194 64° Northeast 429 494 35,000  Level Indianapolis Center
10:31AM 39.9364 -85.8497 64° Northeast 435 501 35,000  Level Indianapolis Center
10:32AM 39.9894 -85.7092 64° Northeast 435 501 35,000  Level Indianapolis Center
10:33AM 40.0419 -85.5664 64° Northeast 437 503 35,000  Level Indianapolis Center
10:34AM 40.0967 -85.4250 63° Northeast 438 504 35,000  Level Indianapolis Center
10:35AM 40.1472 -85.2828 65° Northeast 435 501 35,000  Level Indianapolis Center
10:36AM 40.2000 -85.1411 64° Northeast 435 501 35,000  Level Indianapolis Center
10:37AM 40.2625 -84.9711 64° Northeast 434 499 35,000  Level Indianapolis Center
10:38AM 40.3092 -84.8403 65° Northeast 437 503 35,000 -60 Level Indianapolis Center
10:39AM 40.3633 -84.6964 64° Northeast 435 501 34,900  Descending Indianapolis Center
10:40AM 40.4156 -84.5514 65° Northeast 434 499 35,000  Climbing Indianapolis Center
10:41AM 40.4761 -84.3814 65° Northeast 436 502 35,000  Level Indianapolis Center
10:42AM 40.5275 -84.2336 65° Northeast 439 505 35,000  Level Indianapolis Center
10:43AM 40.5800 -84.0894 64° Northeast 435 501 35,000  Level Indianapolis Center
10:44AM 40.6311 -83.9425 65° Northeast 435 501 35,000  Level Indianapolis Center
10:45AM 40.6819 -83.7950 66° East 436 502 35,000  Level Indianapolis Center
10:46AM 40.7333 -83.6483 65° Northeast 437 503 35,000  Level Indianapolis Center
10:47AM 40.7864 -83.4953 65° Northeast 437 503 35,000  Level Indianapolis Center
10:48AM 40.8378 -83.3475 65° Northeast 438 504 35,000  Level Indianapolis Center
10:49AM 40.8886 -83.1994 66° East 439 505 35,000  Level Indianapolis Center
10:50AM 40.9392 -83.0508 66° East 439 505 35,000  Level Indianapolis Center
10:52AM 40.9906 -82.9019 65° Northeast 441 507 35,000  Level Indianapolis Center
10:53AM 41.0406 -82.7525 66° East 440 506 35,000  Level Indianapolis Center
10:54AM 41.0914 -82.6039 66° East 441 507 35,000  Level Indianapolis Center
10:55AM 41.1497 -82.4278 66° East 443 510 35,000  Level Indianapolis Center
10:56AM 41.2000 -82.2772 66° East 443 510 35,000  Level Indianapolis Center
10:57AM 41.2600 -82.0997 66° East 441 507 35,000  Level Cleveland Center
10:58AM 41.3097 -81.9486 66° East 446 513 35,000  Level Cleveland Center
10:59AM 41.3636 -81.7867 66° East 446 513 35,000 -120 Level Cleveland Center
11:00AM 41.4131 -81.6325 67° East 446 513 34,800 -660 Descending Cleveland Center
11:01AM 41.4625 -81.4781 67° East 446 513 33,700 -900 Descending Cleveland Center
11:02AM 41.5094 -81.3261 68° East 440 506 33,000 -360 Descending Cleveland Center
11:03AM 41.5539 -81.1908 66° East 440 506 33,000  Level Cleveland Center
11:04AM 41.6006 -81.0386 68° East 440 506 33,000  Level Cleveland Center
11:05AM 41.6489 -80.8833 67° East 440 506 33,000  Level Cleveland Center
11:06AM 41.6994 -80.7306 66° East 440 506 33,000  Level Cleveland Center
11:07AM 41.7453 -80.5803 68° East 434 499 33,000  Level Cleveland Center
11:08AM 41.7931 -80.4272 67° East 440 506 33,000  Level Cleveland Center
11:09AM 41.8450 -80.2569 68° East 440 506 33,000  Level Cleveland Center
11:10AM 41.8922 -80.1061 67° East 440 506 33,000  Level Cleveland Center
11:11AM 41.9436 -79.9522 66° East 440 506 33,000  Level Cleveland Center
11:12AM 41.9864 -79.7983 69° East 440 506 33,000  Level Cleveland Center
11:13AM 42.0333 -79.6439 68° East 435 501 33,000  Level Cleveland Center
11:14AM 42.0778 -79.5006 67° East 441 507 33,000  Level Cleveland Center
11:15AM 42.1222 -79.3486 68° East 441 507 33,000  Level Cleveland Center
11:16AM 42.1683 -79.1936 68° East 441 507 33,000  Level Cleveland Center
11:17AM 42.2017 -79.0303 75° East 441 507 33,000  Level Cleveland Center
11:18AM 42.2244 -78.8672 79° East 441 507 33,000  Level Cleveland Center
11:19AM 42.2447 -78.7011 81° East 441 507 33,000  Level Cleveland Center
11:20AM 42.2628 -78.5350 82° East 446 513 33,000  Level Cleveland Center
11:21AM 42.2847 -78.3686 80° East 446 513 33,000  Level Cleveland Center
11:22AM 42.3044 -78.2025 81° East 446 513 33,000  Level Cleveland Center
11:23AM 42.3239 -78.0386 81° East 446 513 33,000  Level Cleveland Center
11:24AM 42.3428 -77.8694 81° East 452 520 33,000  Level Cleveland Center
11:25AM 42.3617 -77.7000 81° East 452 520 33,000  Level Cleveland Center
11:27AM 42.4031 -77.3392 81° East 449 517 33,000  Level Boston Center
11:28AM 42.4228 -77.1717 81° East 444 511 33,000  Level Boston Center
11:29AM 42.4419 -77.0044 81° East 444 511 33,000  Level Boston Center
11:30AM 42.4611 -76.8394 81° East 444 511 33,000  Level Boston Center
11:31AM 42.4778 -76.6717 82° East 444 511 33,000  Level Boston Center
11:32AM 42.4964 -76.5069 81° East 444 511 33,000  Level Boston Center
11:33AM 42.5125 -76.3417 82° East 444 511 33,000  Level Boston Center
11:34AM 42.5300 -76.1933 81° East 444 511 33,000  Level Boston Center
11:35AM 42.5439 -76.0222 84° East 444 511 33,000  Level Boston Center
11:36AM 42.5617 -75.8569 82° East 444 511 33,000  Level Boston Center
11:37AM 42.5706 -75.6908 86° East 444 511 33,000  Level Boston Center
11:38AM 42.5711 -75.5244 90° East 438 504 33,000  Level Boston Center
11:39AM 42.5736 -75.3556 89° East 443 510 33,000  Level Boston Center
11:40AM 42.5756 -75.1864 89° East 443 510 33,000  Level Boston Center
11:41AM 42.5733 -75.0200 91° East 443 510 33,000  Level Boston Center
11:42AM 42.5750 -74.8508 89° East 438 504 33,000 -300 Level Boston Center
11:43AM 42.5742 -74.6900 90° East 438 504 32,500 -720 Descending Boston Center
11:44AM 42.5750 -74.5236 90° East 438 504 31,600 -780 Descending Boston Center
11:45AM 42.5758 -74.3575 90° East 438 504 31,000 -300 Descending Boston Center
11:46AM 42.5767 -74.1883 90° East 438 504 31,000 -600 Level Boston Center
11:47AM 42.5750 -74.0161 91° East 438 504 29,900 -1,020 Descending Boston Center
11:48AM 42.5731 -73.8442 91° East 443 510 29,000 -900 Descending Boston Center
11:49AM 42.5731 -73.6664 90° East 453 521 28,100 -1,080 Descending Boston Center
11:50AM 42.5706 -73.4889 91° East 464 534 26,900 -1,560 Descending Boston Center
11:51AM 42.5681 -73.2914 91° East 478 550 25,000 -1,320 Descending Boston Center
11:52AM 42.5692 -73.1561 89° East 472 543 24,300 -600 Descending Boston Center
11:53AM 42.5658 -72.9561 91° East 455 524 23,900 -180 Descending Boston Center
11:54AM 42.5603 -72.7897 93° East 442 509 24,000  Climbing Boston Center
11:55AM 42.5586 -72.6233 91° East 435 501 23,900 -420 Descending Boston Center
11:56AM 42.5547 -72.4317 92° East 435 501 23,100 -1,440 Descending Boston Center
11:57AM 42.5503 -72.2739 92° East 420 483 21,000 -2,100 Descending Boston Center
11:58AM 42.5481 -72.1469 91° East 394 453 19,000 -1,980 Descending Boston Center
11:59AM 42.5369 -71.9808 95° East 394 453 17,100 -1,500 Descending Boston Center
12:00PM 42.5281 -71.8542 95° East 388 447 16,000 -900 Descending Boston Center
12:01PM 42.5125 -71.7022 98° East 376 433 15,200 -2,340 Descending Boston Center
12:02PM 42.5000 -71.5500 96° East 382 440 11,300 -2,940 Descending KA90
12:03PM 42.4833 -71.4000 99° East 379 436 10,000 -900 Descending KA90
12:04PM 42.4667 -71.2833 101° East 314 361 9,500 -960 Descending KA90
12:05PM 42.4667 -71.1667 90° East 298 343 8,100 -1,500 Descending KA90
12:06PM 42.4333 -71.0667 114° Southeast 318 366 6,500 -1,020 Descending KA90
12:07PM 42.3833 -70.9833 129° Southeast 285 328 6,000 -240 Descending KA90
12:08PM 42.3167 -70.9667 170° South 251 289 6,000 -480 Level KA90
12:09PM 42.2500 -70.9833 190° South 251 289 5,100 -1,140 Descending KA90
12:10PM 42.1833 -71.0333 209° Southwest 224 258 3,700 -1,380 Descending KA90
12:11PM 42.2333 -71.0667 334° Northwest 225 259 2,300 -1,200 Descending KA90
12:12PM 42.2833 -71.0500 14° North 218 251 1,500 -900 Descending KA90
12:13PM 42.3333 -71.0167 26° Northeast 161 185 600 -900 Descending KA90